N624ML SCTE-SCCI
Flight info
| Callsign | N624ML |
|---|---|
| Flight time | 1h 47m |
| Altitude | 33000 |
| Route | GUTI2D GUTIN Q803 PAMIP |
| Aircraft | C750/M-G/C |
Departure
| Time | 2026-05-07 23:27 |
|---|---|
| Airport | El Tepual International Airport (SCTE) |
Arrival
| Time | 2026-05-08 01:14 |
|---|---|
| Airport | President Carlos Ibáñez International Airport (SCCI) |
| Time | Latitude | Longitude | Altitude | Speed | Heading |
|---|---|---|---|---|---|
| 2026-05-07 23:13 | -41.43507 | -73.09695 | 276 ft | 0 kts | 226° |
| 2026-05-07 23:19 | -41.43513 | -73.09699 | 276 ft | 2 kts | 183° |
| 2026-05-07 23:20 | -41.43520 | -73.09681 | 276 ft | 2 kts | 107° |
| 2026-05-07 23:20 | -41.43526 | -73.09655 | 277 ft | 3 kts | 105° |
| 2026-05-07 23:20 | -41.43557 | -73.09616 | 277 ft | 9 kts | 166° |
| 2026-05-07 23:20 | -41.43624 | -73.09612 | 278 ft | 9 kts | 182° |
| 2026-05-07 23:21 | -41.43693 | -73.09615 | 278 ft | 10 kts | 182° |
| 2026-05-07 23:21 | -41.43764 | -73.09618 | 278 ft | 9 kts | 181° |
| 2026-05-07 23:21 | -41.43827 | -73.09621 | 280 ft | 8 kts | 181° |
| 2026-05-07 23:21 | -41.43888 | -73.09622 | 280 ft | 9 kts | 181° |
| 2026-05-07 23:22 | -41.43960 | -73.09624 | 280 ft | 10 kts | 181° |
| 2026-05-07 23:22 | -41.44041 | -73.09625 | 280 ft | 12 kts | 180° |
| 2026-05-07 23:22 | -41.44134 | -73.09626 | 280 ft | 14 kts | 181° |
| 2026-05-07 23:22 | -41.44235 | -73.09632 | 281 ft | 14 kts | 181° |
| 2026-05-07 23:23 | -41.44336 | -73.09635 | 283 ft | 14 kts | 181° |
| 2026-05-07 23:23 | -41.44437 | -73.09637 | 285 ft | 14 kts | 180° |
| 2026-05-07 23:23 | -41.44537 | -73.09644 | 288 ft | 14 kts | 182° |
| 2026-05-07 23:23 | -41.44637 | -73.09650 | 290 ft | 14 kts | 182° |
| 2026-05-07 23:24 | -41.44736 | -73.09654 | 293 ft | 13 kts | 181° |
| 2026-05-07 23:24 | -41.44824 | -73.09657 | 296 ft | 11 kts | 181° |
| 2026-05-07 23:24 | -41.44903 | -73.09660 | 299 ft | 10 kts | 181° |
| 2026-05-07 23:24 | -41.44977 | -73.09661 | 302 ft | 11 kts | 181° |
| 2026-05-07 23:25 | -41.45051 | -73.09644 | 305 ft | 10 kts | 139° |
| 2026-05-07 23:25 | -41.45068 | -73.09573 | 304 ft | 0 kts | 89° |
| 2026-05-07 23:26 | -41.45068 | -73.09572 | 304 ft | 1 kts | 89° |
| 2026-05-07 23:26 | -41.45067 | -73.09504 | 303 ft | 10 kts | 80° |
| 2026-05-07 23:26 | -41.45029 | -73.09497 | 301 ft | 0 kts | 34° |
| 2026-05-07 23:26 | -41.44958 | -73.09448 | 299 ft | 23 kts | 7° |
| 2026-05-07 23:27 | -41.43609 | -73.09396 | 322 ft | 164 kts | 357° |
| 2026-05-07 23:27 | -41.42390 | -73.09513 | 767 ft | 188 kts | 356° |
| 2026-05-07 23:27 | -41.41023 | -73.09524 | 1584 ft | 201 kts | 0° |
| 2026-05-07 23:28 | -41.39688 | -73.09418 | 2779 ft | 197 kts | 14° |
| 2026-05-07 23:28 | -41.38576 | -73.08333 | 3850 ft | 216 kts | 55° |
| 2026-05-07 23:28 | -41.38229 | -73.06323 | 4757 ft | 244 kts | 94° |
| 2026-05-07 23:28 | -41.38909 | -73.04202 | 5627 ft | 265 kts | 133° |
| 2026-05-07 23:29 | -41.40449 | -73.02879 | 6590 ft | 272 kts | 169° |
| 2026-05-07 23:29 | -41.42216 | -73.02863 | 7802 ft | 264 kts | 195° |
| 2026-05-07 23:29 | -41.43954 | -73.03335 | 9225 ft | 259 kts | 194° |
| 2026-05-07 23:29 | -41.45734 | -73.03830 | 10564 ft | 256 kts | 196° |
| 2026-05-07 23:30 | -41.47588 | -73.04401 | 11564 ft | 267 kts | 197° |
| 2026-05-07 23:30 | -41.49585 | -73.05015 | 12476 ft | 281 kts | 196° |
| 2026-05-07 23:30 | -41.51614 | -73.05654 | 13679 ft | 284 kts | 195° |
| 2026-05-07 23:30 | -41.53565 | -73.05658 | 14787 ft | 296 kts | 169° |
| 2026-05-07 23:31 | -41.55574 | -73.04639 | 15751 ft | 299 kts | 172° |
| 2026-05-07 23:31 | -41.57637 | -73.04106 | 16667 ft | 300 kts | 174° |
| 2026-05-07 23:31 | -41.59665 | -73.03519 | 17564 ft | 302 kts | 175° |
| 2026-05-07 23:31 | -41.61747 | -73.02967 | 18475 ft | 304 kts | 175° |
| 2026-05-07 23:32 | -41.63800 | -73.02405 | 19289 ft | 307 kts | 175° |
| 2026-05-07 23:32 | -41.65894 | -73.01837 | 20140 ft | 308 kts | 175° |
| 2026-05-07 23:32 | -41.68015 | -73.01260 | 20906 ft | 312 kts | 175° |
| 2026-05-07 23:32 | -41.70133 | -73.00679 | 21624 ft | 315 kts | 176° |
| 2026-05-07 23:33 | -41.72284 | -73.00098 | 22354 ft | 317 kts | 176° |
| 2026-05-07 23:33 | -41.74468 | -72.99499 | 23018 ft | 321 kts | 176° |
| 2026-05-07 23:33 | -41.76670 | -72.98904 | 23737 ft | 322 kts | 176° |
| 2026-05-07 23:33 | -41.78891 | -72.98291 | 24297 ft | 327 kts | 176° |
| 2026-05-07 23:34 | -41.81118 | -72.97682 | 24963 ft | 328 kts | 176° |
| 2026-05-07 23:34 | -41.83355 | -72.97073 | 25533 ft | 332 kts | 176° |
| 2026-05-07 23:34 | -41.85627 | -72.96449 | 26128 ft | 335 kts | 176° |
| 2026-05-07 23:34 | -41.87910 | -72.95825 | 26713 ft | 338 kts | 176° |
| 2026-05-07 23:35 | -41.90241 | -72.95180 | 27230 ft | 341 kts | 176° |
| 2026-05-07 23:35 | -41.92554 | -72.94546 | 27803 ft | 343 kts | 176° |
| 2026-05-07 23:35 | -41.94890 | -72.93886 | 28335 ft | 345 kts | 177° |
| 2026-05-07 23:35 | -41.97237 | -72.93249 | 28860 ft | 347 kts | 176° |
| 2026-05-07 23:36 | -41.99601 | -72.92590 | 29350 ft | 349 kts | 177° |
| 2026-05-07 23:36 | -42.01983 | -72.91933 | 29733 ft | 353 kts | 177° |
| 2026-05-07 23:36 | -42.04403 | -72.91273 | 30241 ft | 355 kts | 176° |
| 2026-05-07 23:36 | -42.06823 | -72.90605 | 30776 ft | 355 kts | 176° |
| 2026-05-07 23:37 | -42.09235 | -72.89943 | 31362 ft | 353 kts | 176° |
| 2026-05-07 23:37 | -42.11657 | -72.89270 | 31778 ft | 358 kts | 176° |
| 2026-05-07 23:37 | -42.14114 | -72.88597 | 32402 ft | 359 kts | 176° |
| 2026-05-07 23:37 | -42.16548 | -72.87914 | 32938 ft | 362 kts | 177° |
| 2026-05-07 23:38 | -42.19087 | -72.87228 | 33187 ft | 372 kts | 176° |
| 2026-05-07 23:38 | -42.21674 | -72.86510 | 33231 ft | 386 kts | 176° |
| 2026-05-07 23:38 | -42.24387 | -72.85754 | 33224 ft | 401 kts | 176° |
| 2026-05-07 23:38 | -42.27142 | -72.84996 | 33228 ft | 414 kts | 176° |
| 2026-05-07 23:39 | -42.30035 | -72.84197 | 33227 ft | 427 kts | 175° |
| 2026-05-07 23:39 | -42.33033 | -72.83369 | 33219 ft | 440 kts | 175° |
| 2026-05-07 23:39 | -42.39107 | -72.81667 | 33218 ft | 442 kts | 176° |
| 2026-05-07 23:40 | -42.42255 | -72.81235 | 33142 ft | 430 kts | 188° |
| 2026-05-07 23:40 | -42.45336 | -72.81512 | 33219 ft | 431 kts | 186° |
| 2026-05-07 23:40 | -42.51549 | -72.81837 | 33218 ft | 432 kts | 187° |
| 2026-05-07 23:41 | -42.57769 | -72.82189 | 33213 ft | 431 kts | 187° |
| 2026-05-07 23:41 | -42.63995 | -72.82529 | 33200 ft | 431 kts | 187° |
| 2026-05-07 23:42 | -42.70194 | -72.82872 | 33196 ft | 431 kts | 188° |
| 2026-05-07 23:42 | -42.76263 | -72.83225 | 33198 ft | 431 kts | 188° |
| 2026-05-07 23:43 | -42.82294 | -72.83566 | 33189 ft | 431 kts | 187° |
| 2026-05-07 23:43 | -42.88301 | -72.83907 | 33189 ft | 430 kts | 188° |
| 2026-05-07 23:44 | -42.94340 | -72.84240 | 33184 ft | 430 kts | 187° |
| 2026-05-07 23:44 | -43.00484 | -72.84598 | 33185 ft | 431 kts | 188° |
| 2026-05-07 23:45 | -43.06750 | -72.84959 | 33171 ft | 432 kts | 187° |
| 2026-05-07 23:45 | -43.13060 | -72.85311 | 33177 ft | 432 kts | 188° |
| 2026-05-07 23:46 | -43.19307 | -72.85667 | 33165 ft | 433 kts | 188° |
| 2026-05-07 23:46 | -43.25440 | -72.86011 | 33158 ft | 433 kts | 187° |
| 2026-05-07 23:47 | -43.31605 | -72.86380 | 33148 ft | 434 kts | 188° |
| 2026-05-07 23:47 | -43.37758 | -72.86725 | 33139 ft | 435 kts | 187° |
| 2026-05-07 23:48 | -43.43982 | -72.87084 | 33122 ft | 433 kts | 187° |
| 2026-05-07 23:48 | -43.50326 | -72.87452 | 33117 ft | 435 kts | 188° |
| 2026-05-07 23:49 | -43.56464 | -72.87817 | 33131 ft | 437 kts | 188° |
| 2026-05-07 23:49 | -43.62798 | -72.88180 | 33141 ft | 438 kts | 189° |
| 2026-05-07 23:50 | -43.69167 | -72.88557 | 33160 ft | 438 kts | 188° |
| 2026-05-07 23:50 | -43.75504 | -72.88917 | 33178 ft | 438 kts | 189° |
| 2026-05-07 23:51 | -43.81716 | -72.89283 | 33170 ft | 437 kts | 189° |
| 2026-05-07 23:51 | -43.87819 | -72.89638 | 33159 ft | 438 kts | 188° |
| 2026-05-07 23:52 | -43.93877 | -72.89995 | 33151 ft | 437 kts | 188° |
| 2026-05-07 23:52 | -43.99941 | -72.90349 | 33144 ft | 437 kts | 189° |
| 2026-05-07 23:53 | -44.06031 | -72.90706 | 33138 ft | 439 kts | 188° |
| 2026-05-07 23:53 | -44.12289 | -72.91065 | 33154 ft | 439 kts | 188° |
| 2026-05-07 23:54 | -44.18666 | -72.91460 | 33150 ft | 443 kts | 188° |
| 2026-05-07 23:54 | -44.25205 | -72.91845 | 33152 ft | 446 kts | 188° |
| 2026-05-07 23:55 | -44.31723 | -72.92229 | 33170 ft | 447 kts | 188° |
| 2026-05-07 23:55 | -44.38187 | -72.92612 | 33179 ft | 451 kts | 188° |
| 2026-05-07 23:56 | -44.44463 | -72.92979 | 33192 ft | 452 kts | 188° |
| 2026-05-07 23:56 | -44.50744 | -72.93360 | 33207 ft | 453 kts | 188° |
| 2026-05-07 23:57 | -44.57164 | -72.93738 | 33203 ft | 457 kts | 187° |
| 2026-05-07 23:57 | -44.63538 | -72.94121 | 33194 ft | 457 kts | 188° |
| 2026-05-07 23:58 | -44.69930 | -72.94508 | 33187 ft | 459 kts | 187° |
| 2026-05-07 23:58 | -44.76331 | -72.94893 | 33168 ft | 462 kts | 187° |
| 2026-05-07 23:59 | -44.82771 | -72.95277 | 33174 ft | 464 kts | 187° |
| 2026-05-07 23:59 | -44.89232 | -72.95663 | 33178 ft | 468 kts | 187° |
| 2026-05-08 00:00 | -44.95778 | -72.96061 | 33193 ft | 469 kts | 187° |
| 2026-05-08 00:00 | -45.02284 | -72.96455 | 33196 ft | 471 kts | 187° |
| 2026-05-08 00:01 | -45.08816 | -72.96856 | 33194 ft | 472 kts | 187° |
| 2026-05-08 00:01 | -45.15415 | -72.97259 | 33201 ft | 473 kts | 186° |
| 2026-05-08 00:02 | -45.22104 | -72.97658 | 33167 ft | 474 kts | 187° |
| 2026-05-08 00:02 | -45.28919 | -72.98082 | 33159 ft | 474 kts | 186° |
| 2026-05-08 00:03 | -45.35561 | -72.98482 | 33164 ft | 475 kts | 186° |
| 2026-05-08 00:03 | -45.42206 | -72.98892 | 33177 ft | 476 kts | 186° |
| 2026-05-08 00:04 | -45.48821 | -72.99304 | 33168 ft | 476 kts | 186° |
| 2026-05-08 00:04 | -45.55466 | -72.99711 | 33182 ft | 476 kts | 186° |
| 2026-05-08 00:05 | -45.62079 | -73.00125 | 33176 ft | 479 kts | 186° |
| 2026-05-08 00:05 | -45.68776 | -73.00544 | 33177 ft | 479 kts | 186° |
| 2026-05-08 00:06 | -45.75456 | -73.00949 | 33177 ft | 480 kts | 186° |
| 2026-05-08 00:06 | -45.82160 | -73.01367 | 33165 ft | 481 kts | 185° |
| 2026-05-08 00:07 | -45.88861 | -73.01791 | 33159 ft | 482 kts | 185° |
| 2026-05-08 00:07 | -45.95615 | -73.02214 | 33139 ft | 484 kts | 185° |
| 2026-05-08 00:08 | -46.02369 | -73.02640 | 33141 ft | 483 kts | 185° |
| 2026-05-08 00:08 | -46.09135 | -73.03064 | 33144 ft | 484 kts | 185° |
| 2026-05-08 00:09 | -46.15886 | -73.03487 | 33166 ft | 485 kts | 185° |
| 2026-05-08 00:09 | -46.22657 | -73.03915 | 33169 ft | 486 kts | 185° |
| 2026-05-08 00:10 | -46.29470 | -73.04350 | 33162 ft | 487 kts | 185° |
| 2026-05-08 00:10 | -46.36261 | -73.04781 | 33159 ft | 486 kts | 185° |
| 2026-05-08 00:11 | -46.43029 | -73.05215 | 33158 ft | 485 kts | 185° |
| 2026-05-08 00:11 | -46.49828 | -73.05651 | 33153 ft | 485 kts | 185° |
| 2026-05-08 00:12 | -46.56587 | -73.06079 | 33158 ft | 485 kts | 185° |
| 2026-05-08 00:12 | -46.63330 | -73.06511 | 33151 ft | 484 kts | 185° |
| 2026-05-08 00:13 | -46.70027 | -73.06944 | 33149 ft | 484 kts | 185° |
| 2026-05-08 00:13 | -46.76811 | -73.07385 | 33155 ft | 484 kts | 185° |
| 2026-05-08 00:14 | -46.83539 | -73.07816 | 33161 ft | 484 kts | 185° |
| 2026-05-08 00:14 | -46.90232 | -73.08250 | 33175 ft | 483 kts | 185° |
| 2026-05-08 00:15 | -46.96965 | -73.08691 | 33197 ft | 483 kts | 185° |
| 2026-05-08 00:15 | -47.03641 | -73.09552 | 33211 ft | 481 kts | 191° |
| 2026-05-08 00:16 | -47.10315 | -73.10842 | 33184 ft | 482 kts | 189° |
| 2026-05-08 00:16 | -47.16970 | -73.12096 | 33181 ft | 483 kts | 189° |
| 2026-05-08 00:17 | -47.23659 | -73.13370 | 33168 ft | 482 kts | 189° |
| 2026-05-08 00:17 | -47.30329 | -73.14641 | 33163 ft | 482 kts | 189° |
| 2026-05-08 00:18 | -47.37010 | -73.15915 | 33175 ft | 481 kts | 189° |
| 2026-05-08 00:18 | -47.43628 | -73.17180 | 33162 ft | 480 kts | 189° |
| 2026-05-08 00:19 | -47.50275 | -73.18458 | 33156 ft | 480 kts | 189° |
| 2026-05-08 00:19 | -47.56918 | -73.19735 | 33169 ft | 479 kts | 189° |
| 2026-05-08 00:20 | -47.63529 | -73.21012 | 33193 ft | 478 kts | 189° |
| 2026-05-08 00:20 | -47.70134 | -73.22286 | 33224 ft | 477 kts | 189° |
| 2026-05-08 00:21 | -47.76721 | -73.23565 | 33260 ft | 477 kts | 189° |
| 2026-05-08 00:21 | -47.83317 | -73.24849 | 33264 ft | 477 kts | 189° |
| 2026-05-08 00:22 | -47.89905 | -73.26131 | 33271 ft | 477 kts | 189° |
| 2026-05-08 00:22 | -47.96493 | -73.27422 | 33268 ft | 477 kts | 189° |
| 2026-05-08 00:23 | -48.03124 | -73.28721 | 33257 ft | 477 kts | 189° |
| 2026-05-08 00:23 | -48.09719 | -73.30012 | 33244 ft | 478 kts | 189° |
| 2026-05-08 00:24 | -48.16314 | -73.31314 | 33251 ft | 477 kts | 189° |
| 2026-05-08 00:24 | -48.22951 | -73.32625 | 33247 ft | 477 kts | 189° |
| 2026-05-08 00:25 | -48.29563 | -73.33933 | 33205 ft | 477 kts | 189° |
| 2026-05-08 00:25 | -48.36189 | -73.35248 | 33135 ft | 478 kts | 189° |
| 2026-05-08 00:26 | -48.42796 | -73.36560 | 33099 ft | 477 kts | 189° |
| 2026-05-08 00:26 | -48.49412 | -73.37882 | 33056 ft | 477 kts | 189° |
| 2026-05-08 00:27 | -48.55982 | -73.39194 | 33063 ft | 476 kts | 189° |
| 2026-05-08 00:27 | -48.62594 | -73.40517 | 33075 ft | 476 kts | 189° |
| 2026-05-08 00:28 | -48.69190 | -73.41841 | 33080 ft | 476 kts | 189° |
| 2026-05-08 00:28 | -48.75798 | -73.43176 | 33076 ft | 476 kts | 189° |
| 2026-05-08 00:29 | -48.82381 | -73.44507 | 33051 ft | 477 kts | 189° |
| 2026-05-08 00:29 | -48.89012 | -73.45850 | 33024 ft | 477 kts | 189° |
| 2026-05-08 00:30 | -48.95605 | -73.47191 | 32988 ft | 477 kts | 189° |
| 2026-05-08 00:30 | -49.02209 | -73.48534 | 32972 ft | 477 kts | 189° |
| 2026-05-08 00:31 | -49.08800 | -73.49879 | 32968 ft | 477 kts | 189° |
| 2026-05-08 00:31 | -49.15454 | -73.51241 | 32977 ft | 477 kts | 189° |
| 2026-05-08 00:32 | -49.22082 | -73.52604 | 32971 ft | 476 kts | 189° |
| 2026-05-08 00:32 | -49.28708 | -73.53968 | 32983 ft | 476 kts | 189° |
| 2026-05-08 00:33 | -49.35345 | -73.55336 | 33014 ft | 475 kts | 189° |
| 2026-05-08 00:33 | -49.41922 | -73.56698 | 33049 ft | 475 kts | 189° |
| 2026-05-08 00:34 | -49.48526 | -73.58067 | 33076 ft | 475 kts | 189° |
| 2026-05-08 00:34 | -49.55147 | -73.59446 | 33086 ft | 475 kts | 189° |
| 2026-05-08 00:35 | -49.61697 | -73.60814 | 33074 ft | 475 kts | 189° |
| 2026-05-08 00:35 | -49.68322 | -73.62199 | 33080 ft | 475 kts | 189° |
| 2026-05-08 00:36 | -49.74871 | -73.63575 | 33073 ft | 475 kts | 189° |
| 2026-05-08 00:36 | -49.81506 | -73.64970 | 33076 ft | 475 kts | 189° |
| 2026-05-08 00:37 | -49.88109 | -73.66363 | 33088 ft | 474 kts | 189° |
| 2026-05-08 00:38 | -49.97984 | -73.68455 | 33097 ft | 474 kts | 189° |
| 2026-05-08 00:38 | -50.04571 | -73.69853 | 33104 ft | 474 kts | 190° |
| 2026-05-08 00:39 | -50.11214 | -73.71268 | 33127 ft | 473 kts | 189° |
| 2026-05-08 00:39 | -50.17770 | -73.72669 | 33156 ft | 474 kts | 190° |
| 2026-05-08 00:40 | -50.24337 | -73.74073 | 33174 ft | 474 kts | 189° |
| 2026-05-08 00:40 | -50.30900 | -73.75482 | 33204 ft | 474 kts | 189° |
| 2026-05-08 00:41 | -50.37476 | -73.75539 | 33234 ft | 482 kts | 167° |
| 2026-05-08 00:41 | -50.40535 | -73.73239 | 33248 ft | 492 kts | 152° |
| 2026-05-08 00:41 | -50.43445 | -73.70404 | 33235 ft | 491 kts | 155° |
| 2026-05-08 00:42 | -50.49356 | -73.64878 | 33238 ft | 490 kts | 154° |
| 2026-05-08 00:42 | -50.55216 | -73.59383 | 33200 ft | 491 kts | 154° |
| 2026-05-08 00:43 | -50.61098 | -73.53854 | 33168 ft | 489 kts | 154° |
| 2026-05-08 00:43 | -50.66953 | -73.48343 | 33145 ft | 488 kts | 154° |
| 2026-05-08 00:44 | -50.72841 | -73.42770 | 33146 ft | 487 kts | 154° |
| 2026-05-08 00:44 | -50.78701 | -73.37220 | 33147 ft | 487 kts | 154° |
| 2026-05-08 00:45 | -50.84548 | -73.31668 | 33164 ft | 485 kts | 154° |
| 2026-05-08 00:45 | -50.90361 | -73.26123 | 33207 ft | 484 kts | 153° |
| 2026-05-08 00:46 | -50.96127 | -73.20603 | 33225 ft | 483 kts | 154° |
| 2026-05-08 00:46 | -51.01875 | -73.15096 | 33205 ft | 482 kts | 154° |
| 2026-05-08 00:47 | -51.07626 | -73.09566 | 33196 ft | 482 kts | 154° |
| 2026-05-08 00:47 | -51.13366 | -73.04026 | 33212 ft | 481 kts | 154° |
| 2026-05-08 00:48 | -51.19069 | -72.98511 | 33254 ft | 481 kts | 154° |
| 2026-05-08 00:48 | -51.24777 | -72.92957 | 33304 ft | 481 kts | 154° |
| 2026-05-08 00:49 | -51.30537 | -72.87330 | 33310 ft | 481 kts | 153° |
| 2026-05-08 00:49 | -51.36225 | -72.81753 | 33292 ft | 481 kts | 154° |
| 2026-05-08 00:50 | -51.41957 | -72.76124 | 33288 ft | 479 kts | 153° |
| 2026-05-08 00:50 | -51.47673 | -72.70482 | 33289 ft | 478 kts | 153° |
| 2026-05-08 00:51 | -51.53313 | -72.64909 | 33267 ft | 477 kts | 153° |
| 2026-05-08 00:51 | -51.58969 | -72.59299 | 33271 ft | 477 kts | 153° |
| 2026-05-08 00:52 | -51.64637 | -72.53658 | 33265 ft | 477 kts | 153° |
| 2026-05-08 00:52 | -51.70266 | -72.48050 | 33256 ft | 476 kts | 153° |
| 2026-05-08 00:53 | -51.75783 | -72.42054 | 33266 ft | 479 kts | 148° |
| 2026-05-08 00:53 | -51.81074 | -72.35615 | 33263 ft | 479 kts | 148° |
| 2026-05-08 00:54 | -51.86431 | -72.29102 | 33260 ft | 478 kts | 147° |
| 2026-05-08 00:54 | -51.91781 | -72.22563 | 33245 ft | 478 kts | 148° |
| 2026-05-08 00:55 | -51.97115 | -72.16032 | 33237 ft | 479 kts | 147° |
| 2026-05-08 00:55 | -52.02451 | -72.09471 | 33231 ft | 479 kts | 147° |
| 2026-05-08 00:56 | -52.07801 | -72.02876 | 33221 ft | 479 kts | 147° |
| 2026-05-08 00:56 | -52.13144 | -71.96282 | 33221 ft | 479 kts | 147° |
| 2026-05-08 00:57 | -52.18513 | -71.89635 | 33213 ft | 478 kts | 147° |
| 2026-05-08 00:57 | -52.23867 | -71.82985 | 33244 ft | 477 kts | 147° |
| 2026-05-08 00:58 | -52.29218 | -71.76320 | 33065 ft | 479 kts | 147° |
| 2026-05-08 00:58 | -52.31894 | -71.72965 | 32958 ft | 480 kts | 147° |
| 2026-05-08 00:58 | -52.34546 | -71.69651 | 32898 ft | 477 kts | 147° |
| 2026-05-08 00:58 | -52.37189 | -71.66337 | 32645 ft | 477 kts | 147° |
| 2026-05-08 00:59 | -52.39851 | -71.62994 | 32219 ft | 479 kts | 146° |
| 2026-05-08 00:59 | -52.42302 | -71.59399 | 31785 ft | 471 kts | 141° |
| 2026-05-08 00:59 | -52.44694 | -71.55757 | 31066 ft | 467 kts | 142° |
| 2026-05-08 00:59 | -52.47043 | -71.52202 | 30385 ft | 462 kts | 142° |
| 2026-05-08 01:00 | -52.49424 | -71.48596 | 29682 ft | 453 kts | 141° |
| 2026-05-08 01:00 | -52.51691 | -71.45214 | 28970 ft | 432 kts | 141° |
| 2026-05-08 01:00 | -52.53845 | -71.41861 | 28252 ft | 416 kts | 138° |
| 2026-05-08 01:00 | -52.55809 | -71.38464 | 27539 ft | 402 kts | 137° |
| 2026-05-08 01:01 | -52.57729 | -71.35207 | 26800 ft | 391 kts | 137° |
| 2026-05-08 01:01 | -52.59607 | -71.32034 | 26062 ft | 373 kts | 137° |
| 2026-05-08 01:01 | -52.61385 | -71.29053 | 25288 ft | 356 kts | 136° |
| 2026-05-08 01:01 | -52.63100 | -71.26218 | 24582 ft | 338 kts | 136° |
| 2026-05-08 01:02 | -52.64817 | -71.23414 | 23842 ft | 339 kts | 137° |
| 2026-05-08 01:02 | -52.66544 | -71.20656 | 23086 ft | 339 kts | 137° |
| 2026-05-08 01:02 | -52.68348 | -71.17828 | 22300 ft | 340 kts | 137° |
| 2026-05-08 01:02 | -52.70138 | -71.15076 | 21526 ft | 341 kts | 137° |
| 2026-05-08 01:03 | -52.71994 | -71.12286 | 20719 ft | 341 kts | 137° |
| 2026-05-08 01:03 | -52.73891 | -71.09489 | 19901 ft | 342 kts | 137° |
| 2026-05-08 01:03 | -52.75804 | -71.06728 | 19084 ft | 343 kts | 137° |
| 2026-05-08 01:03 | -52.77615 | -71.04144 | 18285 ft | 344 kts | 137° |
| 2026-05-08 01:04 | -52.79474 | -71.01469 | 17402 ft | 339 kts | 137° |
| 2026-05-08 01:04 | -52.81262 | -70.98885 | 16577 ft | 332 kts | 137° |
| 2026-05-08 01:04 | -52.83047 | -70.96295 | 15778 ft | 323 kts | 137° |
| 2026-05-08 01:04 | -52.84762 | -70.93797 | 14871 ft | 312 kts | 137° |
| 2026-05-08 01:05 | -52.86408 | -70.91382 | 14019 ft | 296 kts | 137° |
| 2026-05-08 01:05 | -52.87661 | -70.88793 | 13191 ft | 282 kts | 111° |
| 2026-05-08 01:05 | -52.88070 | -70.85658 | 12431 ft | 271 kts | 98° |
| 2026-05-08 01:05 | -52.88316 | -70.82629 | 11648 ft | 264 kts | 98° |
| 2026-05-08 01:06 | -52.88554 | -70.79639 | 10850 ft | 256 kts | 98° |
| 2026-05-08 01:06 | -52.88776 | -70.76743 | 10055 ft | 250 kts | 98° |
| 2026-05-08 01:06 | -52.88987 | -70.73916 | 9269 ft | 246 kts | 98° |
| 2026-05-08 01:06 | -52.89194 | -70.71101 | 8484 ft | 242 kts | 98° |
| 2026-05-08 01:07 | -52.89389 | -70.68375 | 7695 ft | 239 kts | 98° |
| 2026-05-08 01:07 | -52.89579 | -70.65642 | 6904 ft | 237 kts | 98° |
| 2026-05-08 01:07 | -52.89764 | -70.62934 | 6194 ft | 240 kts | 98° |
| 2026-05-08 01:07 | -52.89951 | -70.60169 | 5390 ft | 243 kts | 98° |
| 2026-05-08 01:08 | -52.90135 | -70.57391 | 4592 ft | 242 kts | 98° |
| 2026-05-08 01:08 | -52.90317 | -70.54619 | 3801 ft | 242 kts | 98° |
| 2026-05-08 01:08 | -52.90753 | -70.51988 | 3065 ft | 236 kts | 126° |
| 2026-05-08 01:08 | -52.92004 | -70.50593 | 2963 ft | 211 kts | 168° |
| 2026-05-08 01:09 | -52.93454 | -70.50496 | 2982 ft | 209 kts | 179° |
| 2026-05-08 01:09 | -52.94952 | -70.50519 | 2979 ft | 218 kts | 179° |
| 2026-05-08 01:09 | -52.96502 | -70.50545 | 2975 ft | 222 kts | 179° |
| 2026-05-08 01:09 | -52.98080 | -70.50572 | 2977 ft | 228 kts | 179° |
| 2026-05-08 01:10 | -52.99672 | -70.50912 | 2961 ft | 236 kts | 201° |
| 2026-05-08 01:10 | -53.00902 | -70.52880 | 2983 ft | 246 kts | 243° |
| 2026-05-08 01:10 | -53.01110 | -70.55633 | 2975 ft | 242 kts | 282° |
| 2026-05-08 01:10 | -53.00292 | -70.57994 | 2987 ft | 234 kts | 313° |
| 2026-05-08 01:11 | -52.99482 | -70.60252 | 2930 ft | 219 kts | 280° |
| 2026-05-08 01:11 | -52.99588 | -70.62651 | 2639 ft | 198 kts | 257° |
| 2026-05-08 01:11 | -52.99742 | -70.64872 | 2364 ft | 185 kts | 265° |
| 2026-05-08 01:11 | -52.99797 | -70.66965 | 2123 ft | 174 kts | 265° |
| 2026-05-08 01:12 | -52.99837 | -70.68925 | 1886 ft | 164 kts | 266° |
| 2026-05-08 01:12 | -52.99864 | -70.70716 | 1708 ft | 143 kts | 266° |
| 2026-05-08 01:12 | -52.99885 | -70.72304 | 1537 ft | 128 kts | 265° |
| 2026-05-08 01:12 | -52.99915 | -70.73935 | 1332 ft | 135 kts | 265° |
| 2026-05-08 01:13 | -52.99942 | -70.75661 | 1146 ft | 146 kts | 266° |
| 2026-05-08 01:13 | -52.99969 | -70.77447 | 913 ft | 148 kts | 267° |
| 2026-05-08 01:13 | -52.99991 | -70.79250 | 675 ft | 145 kts | 267° |
| 2026-05-08 01:13 | -53.00016 | -70.80927 | 464 ft | 140 kts | 267° |
| 2026-05-08 01:14 | -53.00037 | -70.82530 | 268 ft | 131 kts | 267° |
| 2026-05-08 01:14 | -53.00064 | -70.84009 | 140 ft | 120 kts | 267° |
| 2026-05-08 01:14 | -53.00090 | -70.85217 | 132 ft | 82 kts | 269° |
| 2026-05-08 01:14 | -53.00097 | -70.85794 | 142 ft | 25 kts | 265° |
| 2026-05-08 01:15 | -53.00102 | -70.86023 | 144 ft | 14 kts | 269° |
| 2026-05-08 01:15 | -53.00102 | -70.86151 | 146 ft | 9 kts | 269° |
| 2026-05-08 01:15 | -53.00104 | -70.86271 | 146 ft | 11 kts | 268° |
| 2026-05-08 01:15 | -53.00166 | -70.86285 | 141 ft | 14 kts | 154° |
| 2026-05-08 01:16 | -53.00242 | -70.86166 | 139 ft | 12 kts | 123° |
| 2026-05-08 01:16 | -53.00265 | -70.86014 | 137 ft | 15 kts | 91° |
| 2026-05-08 01:16 | -53.00263 | -70.85825 | 137 ft | 17 kts | 89° |
| 2026-05-08 01:16 | -53.00263 | -70.85602 | 133 ft | 21 kts | 92° |
| 2026-05-08 01:17 | -53.00263 | -70.85338 | 131 ft | 23 kts | 90° |
| 2026-05-08 01:17 | -53.00261 | -70.85178 | 131 ft | 7 kts | 86° |
| 2026-05-08 01:17 | -53.00259 | -70.85077 | 131 ft | 9 kts | 101° |
| 2026-05-08 01:17 | -53.00259 | -70.84992 | 131 ft | 7 kts | 76° |
| 2026-05-08 01:18 | -53.00253 | -70.84848 | 131 ft | 11 kts | 89° |
| 2026-05-08 01:18 | -53.00286 | -70.84724 | 131 ft | 12 kts | 144° |
| 2026-05-08 01:18 | -53.00367 | -70.84639 | 131 ft | 14 kts | 144° |
| 2026-05-08 01:18 | -53.00412 | -70.84549 | 131 ft | 6 kts | 175° |
| 2026-05-08 01:19 | -53.00453 | -70.84589 | 131 ft | 0 kts | 218° |